sensor_id;sensor_type;location;lat;lon;timestamp;P1;durP1;ratioP1;P2;durP2;ratioP2
18320;SDS011;54904;54.350;18.664;2023-11-19T00:00:34;14.33;;;8.70;;
18320;SDS011;54904;54.350;18.664;2023-11-19T00:03:01;15.10;;;8.13;;
18320;SDS011;54904;54.350;18.664;2023-11-19T00:05:29;18.13;;;10.00;;
18320;SDS011;54904;54.350;18.664;2023-11-19T00:07:56;23.77;;;11.10;;
18320;SDS011;54904;54.350;18.664;2023-11-19T00:10:23;18.53;;;9.93;;
18320;SDS011;54904;54.350;18.664;2023-11-19T00:12:51;22.87;;;11.40;;
18320;SDS011;54904;54.350;18.664;2023-11-19T00:15:18;21.37;;;11.37;;
18320;SDS011;54904;54.350;18.664;2023-11-19T00:17:46;27.43;;;13.27;;
18320;SDS011;54904;54.350;18.664;2023-11-19T00:20:14;23.73;;;12.07;;
18320;SDS011;54904;54.350;18.664;2023-11-19T00:22:43;23.70;;;11.50;;
18320;SDS011;54904;54.350;18.664;2023-11-19T00:25:13;22.93;;;11.90;;
18320;SDS011;54904;54.350;18.664;2023-11-19T00:27:40;26.10;;;13.03;;
18320;SDS011;54904;54.350;18.664;2023-11-19T00:30:11;22.40;;;11.97;;
18320;SDS011;54904;54.350;18.664;2023-11-19T00:32:39;25.50;;;12.07;;
18320;SDS011;54904;54.350;18.664;2023-11-19T00:35:07;27.93;;;13.53;;
18320;SDS011;54904;54.350;18.664;2023-11-19T00:37:35;26.70;;;11.87;;
18320;SDS011;54904;54.350;18.664;2023-11-19T00:40:02;25.13;;;12.43;;
18320;SDS011;54904;54.350;18.664;2023-11-19T00:42:30;29.77;;;12.80;;
18320;SDS011;54904;54.350;18.664;2023-11-19T00:44:57;25.57;;;12.60;;
18320;SDS011;54904;54.350;18.664;2023-11-19T00:47:28;27.20;;;12.93;;
18320;SDS011;54904;54.350;18.664;2023-11-19T00:49:56;21.40;;;11.50;;
18320;SDS011;54904;54.350;18.664;2023-11-19T00:52:24;23.10;;;10.77;;
18320;SDS011;54904;54.350;18.664;2023-11-19T00:54:51;19.63;;;11.00;;
18320;SDS011;54904;54.350;18.664;2023-11-19T00:57:19;19.57;;;10.90;;
18320;SDS011;54904;54.350;18.664;2023-11-19T00:59:46;15.00;;;8.87;;
18320;SDS011;54904;54.350;18.664;2023-11-19T01:02:13;14.13;;;7.90;;
18320;SDS011;54904;54.350;18.664;2023-11-19T01:04:42;10.77;;;6.97;;
18320;SDS011;54904;54.350;18.664;2023-11-19T01:07:09;14.17;;;8.00;;
18320;SDS011;54904;54.350;18.664;2023-11-19T01:09:38;9.80;;;6.27;;
18320;SDS011;54904;54.350;18.664;2023-11-19T01:12:05;19.90;;;10.10;;
18320;SDS011;54904;54.350;18.664;2023-11-19T01:14:34;16.97;;;9.30;;
18320;SDS011;54904;54.350;18.664;2023-11-19T01:17:01;15.40;;;8.73;;
18320;SDS011;54904;54.350;18.664;2023-11-19T01:19:30;16.37;;;9.03;;
18320;SDS011;54904;54.350;18.664;2023-11-19T01:21:58;14.13;;;8.57;;
18320;SDS011;54904;54.350;18.664;2023-11-19T01:24:25;15.33;;;8.37;;
18320;SDS011;54904;54.350;18.664;2023-11-19T01:26:54;12.60;;;7.00;;
18320;SDS011;54904;54.350;18.664;2023-11-19T01:29:22;13.07;;;7.83;;
18320;SDS011;54904;54.350;18.664;2023-11-19T01:31:49;14.83;;;8.37;;
18320;SDS011;54904;54.350;18.664;2023-11-19T01:34:18;13.73;;;8.70;;
18320;SDS011;54904;54.350;18.664;2023-11-19T01:36:46;16.63;;;8.40;;
18320;SDS011;54904;54.350;18.664;2023-11-19T01:39:15;12.63;;;7.40;;
18320;SDS011;54904;54.350;18.664;2023-11-19T01:41:42;13.17;;;7.63;;
18320;SDS011;54904;54.350;18.664;2023-11-19T01:44:09;13.27;;;7.80;;
18320;SDS011;54904;54.350;18.664;2023-11-19T01:46:40;11.70;;;7.87;;
18320;SDS011;54904;54.350;18.664;2023-11-19T01:49:08;11.40;;;6.70;;
18320;SDS011;54904;54.350;18.664;2023-11-19T01:51:37;16.23;;;8.67;;
18320;SDS011;54904;54.350;18.664;2023-11-19T01:54:05;14.27;;;8.20;;
18320;SDS011;54904;54.350;18.664;2023-11-19T01:56:34;13.97;;;8.40;;
18320;SDS011;54904;54.350;18.664;2023-11-19T01:59:00;16.27;;;9.17;;
18320;SDS011;54904;54.350;18.664;2023-11-19T02:01:29;20.33;;;10.80;;
18320;SDS011;54904;54.350;18.664;2023-11-19T02:03:57;18.37;;;10.30;;
18320;SDS011;54904;54.350;18.664;2023-11-19T02:06:25;15.53;;;9.10;;
18320;SDS011;54904;54.350;18.664;2023-11-19T02:08:54;13.37;;;8.07;;
18320;SDS011;54904;54.350;18.664;2023-11-19T02:11:21;11.33;;;7.37;;
18320;SDS011;54904;54.350;18.664;2023-11-19T02:13:49;14.83;;;8.87;;
18320;SDS011;54904;54.350;18.664;2023-11-19T02:16:16;16.90;;;9.30;;
18320;SDS011;54904;54.350;18.664;2023-11-19T02:18:43;19.53;;;10.50;;
18320;SDS011;54904;54.350;18.664;2023-11-19T02:21:10;19.87;;;10.30;;
18320;SDS011;54904;54.350;18.664;2023-11-19T02:23:40;17.17;;;9.53;;
18320;SDS011;54904;54.350;18.664;2023-11-19T02:26:10;22.47;;;11.17;;
18320;SDS011;54904;54.350;18.664;2023-11-19T02:28:42;18.33;;;9.60;;
18320;SDS011;54904;54.350;18.664;2023-11-19T02:31:10;16.53;;;8.67;;
18320;SDS011;54904;54.350;18.664;2023-11-19T02:33:37;16.80;;;10.00;;
18320;SDS011;54904;54.350;18.664;2023-11-19T02:36:05;13.70;;;7.90;;
18320;SDS011;54904;54.350;18.664;2023-11-19T02:38:33;20.80;;;11.03;;
18320;SDS011;54904;54.350;18.664;2023-11-19T02:41:02;18.20;;;11.00;;
18320;SDS011;54904;54.350;18.664;2023-11-19T02:43:31;18.80;;;10.43;;
18320;SDS011;54904;54.350;18.664;2023-11-19T02:46:01;19.33;;;10.97;;
18320;SDS011;54904;54.350;18.664;2023-11-19T02:48:29;16.13;;;9.53;;
18320;SDS011;54904;54.350;18.664;2023-11-19T02:50:56;17.17;;;9.20;;
18320;SDS011;54904;54.350;18.664;2023-11-19T02:53:24;11.90;;;7.30;;
18320;SDS011;54904;54.350;18.664;2023-11-19T02:55:54;12.50;;;6.90;;
18320;SDS011;54904;54.350;18.664;2023-11-19T02:58:26;14.40;;;8.50;;
18320;SDS011;54904;54.350;18.664;2023-11-19T03:00:54;19.10;;;10.13;;
18320;SDS011;54904;54.350;18.664;2023-11-19T03:03:26;15.00;;;9.10;;
18320;SDS011;54904;54.350;18.664;2023-11-19T03:06:03;18.33;;;9.93;;
18320;SDS011;54904;54.350;18.664;2023-11-19T03:08:31;14.77;;;9.20;;
18320;SDS011;54904;54.350;18.664;2023-11-19T03:10:58;18.83;;;10.67;;
18320;SDS011;54904;54.350;18.664;2023-11-19T03:13:26;16.93;;;9.37;;
18320;SDS011;54904;54.350;18.664;2023-11-19T03:15:53;16.00;;;9.00;;
18320;SDS011;54904;54.350;18.664;2023-11-19T03:18:20;15.63;;;8.60;;
18320;SDS011;54904;54.350;18.664;2023-11-19T03:20:48;14.70;;;8.63;;
18320;SDS011;54904;54.350;18.664;2023-11-19T03:23:16;17.00;;;9.80;;
18320;SDS011;54904;54.350;18.664;2023-11-19T03:25:43;16.60;;;9.30;;
18320;SDS011;54904;54.350;18.664;2023-11-19T03:28:10;16.93;;;9.63;;
18320;SDS011;54904;54.350;18.664;2023-11-19T03:30:37;24.00;;;11.80;;
18320;SDS011;54904;54.350;18.664;2023-11-19T03:33:04;23.53;;;12.17;;
18320;SDS011;54904;54.350;18.664;2023-11-19T03:35:31;21.90;;;11.13;;
18320;SDS011;54904;54.350;18.664;2023-11-19T03:38:00;17.90;;;10.10;;
18320;SDS011;54904;54.350;18.664;2023-11-19T03:40:27;16.27;;;9.10;;
18320;SDS011;54904;54.350;18.664;2023-11-19T03:42:55;17.77;;;9.50;;
18320;SDS011;54904;54.350;18.664;2023-11-19T03:45:23;17.67;;;9.57;;
18320;SDS011;54904;54.350;18.664;2023-11-19T03:47:50;15.80;;;8.77;;
18320;SDS011;54904;54.350;18.664;2023-11-19T03:50:18;23.43;;;11.33;;
18320;SDS011;54904;54.350;18.664;2023-11-19T03:52:46;17.47;;;9.07;;
18320;SDS011;54904;54.350;18.664;2023-11-19T03:55:14;22.60;;;10.67;;
18320;SDS011;54904;54.350;18.664;2023-11-19T03:57:42;28.63;;;13.57;;
18320;SDS011;54904;54.350;18.664;2023-11-19T04:00:09;22.00;;;12.00;;
18320;SDS011;54904;54.350;18.664;2023-11-19T04:02:39;21.70;;;11.20;;
18320;SDS011;54904;54.350;18.664;2023-11-19T04:05:07;19.57;;;10.87;;
18320;SDS011;54904;54.350;18.664;2023-11-19T04:07:35;24.37;;;11.93;;
18320;SDS011;54904;54.350;18.664;2023-11-19T04:10:02;23.30;;;12.53;;
18320;SDS011;54904;54.350;18.664;2023-11-19T04:12:31;18.67;;;10.77;;
18320;SDS011;54904;54.350;18.664;2023-11-19T04:14:58;19.50;;;10.40;;
18320;SDS011;54904;54.350;18.664;2023-11-19T04:17:25;19.13;;;10.30;;
18320;SDS011;54904;54.350;18.664;2023-11-19T04:19:52;17.73;;;10.43;;
18320;SDS011;54904;54.350;18.664;2023-11-19T04:22:20;21.10;;;11.17;;
18320;SDS011;54904;54.350;18.664;2023-11-19T04:24:47;17.53;;;10.37;;
18320;SDS011;54904;54.350;18.664;2023-11-19T04:27:14;17.93;;;9.83;;
18320;SDS011;54904;54.350;18.664;2023-11-19T04:29:43;14.77;;;8.80;;
18320;SDS011;54904;54.350;18.664;2023-11-19T04:32:11;20.73;;;10.60;;
18320;SDS011;54904;54.350;18.664;2023-11-19T04:34:38;18.67;;;10.37;;
18320;SDS011;54904;54.350;18.664;2023-11-19T04:37:05;18.53;;;10.00;;
18320;SDS011;54904;54.350;18.664;2023-11-19T04:39:32;16.57;;;10.00;;
18320;SDS011;54904;54.350;18.664;2023-11-19T04:41:59;18.83;;;10.73;;
18320;SDS011;54904;54.350;18.664;2023-11-19T04:44:26;15.97;;;9.17;;
18320;SDS011;54904;54.350;18.664;2023-11-19T04:46:56;17.47;;;9.63;;
18320;SDS011;54904;54.350;18.664;2023-11-19T04:49:23;19.43;;;10.10;;
18320;SDS011;54904;54.350;18.664;2023-11-19T04:51:52;16.60;;;9.20;;
18320;SDS011;54904;54.350;18.664;2023-11-19T04:54:19;19.77;;;9.63;;
18320;SDS011;54904;54.350;18.664;2023-11-19T04:56:46;15.40;;;9.00;;
18320;SDS011;54904;54.350;18.664;2023-11-19T04:59:14;15.87;;;9.13;;
18320;SDS011;54904;54.350;18.664;2023-11-19T05:01:41;14.33;;;8.97;;
18320;SDS011;54904;54.350;18.664;2023-11-19T05:04:14;18.83;;;9.53;;
18320;SDS011;54904;54.350;18.664;2023-11-19T05:06:41;16.57;;;9.13;;
18320;SDS011;54904;54.350;18.664;2023-11-19T05:09:08;17.43;;;9.40;;
18320;SDS011;54904;54.350;18.664;2023-11-19T05:11:38;19.97;;;10.00;;
18320;SDS011;54904;54.350;18.664;2023-11-19T05:14:05;15.77;;;8.80;;
18320;SDS011;54904;54.350;18.664;2023-11-19T05:16:34;16.80;;;9.37;;
18320;SDS011;54904;54.350;18.664;2023-11-19T05:19:01;16.60;;;9.23;;
18320;SDS011;54904;54.350;18.664;2023-11-19T05:21:30;14.77;;;8.33;;
18320;SDS011;54904;54.350;18.664;2023-11-19T05:23:57;17.00;;;9.07;;
18320;SDS011;54904;54.350;18.664;2023-11-19T05:26:24;14.73;;;8.13;;
18320;SDS011;54904;54.350;18.664;2023-11-19T05:28:52;11.70;;;7.37;;
18320;SDS011;54904;54.350;18.664;2023-11-19T05:31:19;11.37;;;7.17;;
18320;SDS011;54904;54.350;18.664;2023-11-19T05:33:46;13.57;;;7.30;;
18320;SDS011;54904;54.350;18.664;2023-11-19T05:36:13;12.27;;;7.20;;
18320;SDS011;54904;54.350;18.664;2023-11-19T05:38:41;11.63;;;7.00;;
18320;SDS011;54904;54.350;18.664;2023-11-19T05:41:09;10.90;;;7.20;;
18320;SDS011;54904;54.350;18.664;2023-11-19T05:43:36;12.53;;;7.83;;
18320;SDS011;54904;54.350;18.664;2023-11-19T05:46:05;9.73;;;5.83;;
18320;SDS011;54904;54.350;18.664;2023-11-19T05:48:34;12.10;;;7.30;;
18320;SDS011;54904;54.350;18.664;2023-11-19T05:51:01;11.73;;;7.07;;
18320;SDS011;54904;54.350;18.664;2023-11-19T05:53:28;10.00;;;6.70;;
18320;SDS011;54904;54.350;18.664;2023-11-19T05:55:57;11.57;;;6.93;;
18320;SDS011;54904;54.350;18.664;2023-11-19T05:58:28;9.13;;;6.43;;
18320;SDS011;54904;54.350;18.664;2023-11-19T06:00:58;10.83;;;6.57;;
18320;SDS011;54904;54.350;18.664;2023-11-19T06:03:26;11.70;;;7.37;;
18320;SDS011;54904;54.350;18.664;2023-11-19T06:05:53;10.77;;;6.33;;
18320;SDS011;54904;54.350;18.664;2023-11-19T06:08:20;12.47;;;6.70;;
18320;SDS011;54904;54.350;18.664;2023-11-19T06:10:47;9.83;;;6.67;;
18320;SDS011;54904;54.350;18.664;2023-11-19T06:13:17;11.90;;;5.83;;
18320;SDS011;54904;54.350;18.664;2023-11-19T06:15:44;9.97;;;5.73;;
18320;SDS011;54904;54.350;18.664;2023-11-19T06:18:12;9.53;;;5.93;;
18320;SDS011;54904;54.350;18.664;2023-11-19T06:20:40;12.50;;;7.27;;
18320;SDS011;54904;54.350;18.664;2023-11-19T06:23:07;15.30;;;8.90;;
18320;SDS011;54904;54.350;18.664;2023-11-19T06:25:34;13.67;;;8.10;;
18320;SDS011;54904;54.350;18.664;2023-11-19T06:28:01;14.03;;;8.23;;
18320;SDS011;54904;54.350;18.664;2023-11-19T06:30:30;15.40;;;8.93;;
18320;SDS011;54904;54.350;18.664;2023-11-19T06:32:58;14.43;;;8.13;;
18320;SDS011;54904;54.350;18.664;2023-11-19T06:35:25;14.07;;;8.23;;
18320;SDS011;54904;54.350;18.664;2023-11-19T06:37:52;11.90;;;7.40;;
18320;SDS011;54904;54.350;18.664;2023-11-19T06:40:20;13.80;;;8.43;;
18320;SDS011;54904;54.350;18.664;2023-11-19T06:42:48;13.70;;;8.47;;
18320;SDS011;54904;54.350;18.664;2023-11-19T06:45:17;14.33;;;8.77;;
18320;SDS011;54904;54.350;18.664;2023-11-19T06:47:46;14.47;;;8.10;;
18320;SDS011;54904;54.350;18.664;2023-11-19T06:50:13;14.27;;;8.63;;
18320;SDS011;54904;54.350;18.664;2023-11-19T06:52:40;11.93;;;7.60;;
18320;SDS011;54904;54.350;18.664;2023-11-19T06:55:07;11.07;;;7.33;;
18320;SDS011;54904;54.350;18.664;2023-11-19T06:57:35;8.80;;;5.90;;
18320;SDS011;54904;54.350;18.664;2023-11-19T07:00:02;10.30;;;6.13;;
18320;SDS011;54904;54.350;18.664;2023-11-19T07:02:30;8.93;;;5.87;;
18320;SDS011;54904;54.350;18.664;2023-11-19T07:04:59;12.43;;;7.00;;
18320;SDS011;54904;54.350;18.664;2023-11-19T07:07:26;11.17;;;6.43;;
18320;SDS011;54904;54.350;18.664;2023-11-19T07:09:53;14.33;;;8.07;;
18320;SDS011;54904;54.350;18.664;2023-11-19T07:12:20;18.47;;;9.97;;
18320;SDS011;54904;54.350;18.664;2023-11-19T07:14:47;16.40;;;9.20;;
18320;SDS011;54904;54.350;18.664;2023-11-19T07:17:14;14.60;;;8.87;;
18320;SDS011;54904;54.350;18.664;2023-11-19T07:19:42;16.43;;;9.50;;
18320;SDS011;54904;54.350;18.664;2023-11-19T07:22:11;13.57;;;8.30;;
18320;SDS011;54904;54.350;18.664;2023-11-19T07:24:38;15.90;;;8.97;;
18320;SDS011;54904;54.350;18.664;2023-11-19T07:27:05;13.50;;;7.50;;
18320;SDS011;54904;54.350;18.664;2023-11-19T07:29:34;12.77;;;8.17;;
18320;SDS011;54904;54.350;18.664;2023-11-19T07:32:01;11.67;;;6.73;;
18320;SDS011;54904;54.350;18.664;2023-11-19T07:34:28;11.33;;;7.17;;
18320;SDS011;54904;54.350;18.664;2023-11-19T07:36:54;9.67;;;6.63;;
18320;SDS011;54904;54.350;18.664;2023-11-19T07:39:26;10.73;;;6.93;;
18320;SDS011;54904;54.350;18.664;2023-11-19T07:41:53;13.63;;;7.43;;
18320;SDS011;54904;54.350;18.664;2023-11-19T07:44:20;10.83;;;6.90;;
18320;SDS011;54904;54.350;18.664;2023-11-19T07:46:47;10.10;;;5.83;;
18320;SDS011;54904;54.350;18.664;2023-11-19T07:49:14;7.93;;;5.17;;
18320;SDS011;54904;54.350;18.664;2023-11-19T07:51:41;8.33;;;5.33;;
18320;SDS011;54904;54.350;18.664;2023-11-19T07:54:08;8.83;;;6.07;;
18320;SDS011;54904;54.350;18.664;2023-11-19T07:56:37;9.20;;;6.17;;
18320;SDS011;54904;54.350;18.664;2023-11-19T07:59:04;10.13;;;6.53;;
18320;SDS011;54904;54.350;18.664;2023-11-19T08:01:31;12.97;;;7.13;;
18320;SDS011;54904;54.350;18.664;2023-11-19T08:03:58;12.97;;;7.00;;
18320;SDS011;54904;54.350;18.664;2023-11-19T08:06:27;12.33;;;7.23;;
18320;SDS011;54904;54.350;18.664;2023-11-19T08:08:54;11.73;;;7.17;;
18320;SDS011;54904;54.350;18.664;2023-11-19T08:11:21;12.30;;;7.37;;
18320;SDS011;54904;54.350;18.664;2023-11-19T08:13:52;16.40;;;8.23;;
18320;SDS011;54904;54.350;18.664;2023-11-19T08:16:19;14.33;;;8.70;;
18320;SDS011;54904;54.350;18.664;2023-11-19T08:18:46;16.53;;;8.90;;
18320;SDS011;54904;54.350;18.664;2023-11-19T08:21:13;16.30;;;9.13;;
18320;SDS011;54904;54.350;18.664;2023-11-19T08:23:40;13.27;;;8.43;;
18320;SDS011;54904;54.350;18.664;2023-11-19T08:26:07;15.00;;;7.97;;
18320;SDS011;54904;54.350;18.664;2023-11-19T08:28:35;17.70;;;9.33;;
18320;SDS011;54904;54.350;18.664;2023-11-19T08:31:04;17.93;;;9.87;;
18320;SDS011;54904;54.350;18.664;2023-11-19T08:33:31;17.50;;;9.83;;
18320;SDS011;54904;54.350;18.664;2023-11-19T08:35:58;16.83;;;10.03;;
18320;SDS011;54904;54.350;18.664;2023-11-19T08:38:26;16.20;;;9.27;;
18320;SDS011;54904;54.350;18.664;2023-11-19T08:40:53;14.30;;;8.97;;
18320;SDS011;54904;54.350;18.664;2023-11-19T08:43:24;11.93;;;7.17;;
18320;SDS011;54904;54.350;18.664;2023-11-19T08:45:51;13.80;;;8.63;;
18320;SDS011;54904;54.350;18.664;2023-11-19T08:48:20;14.73;;;8.03;;
18320;SDS011;54904;54.350;18.664;2023-11-19T08:50:47;14.00;;;8.30;;
18320;SDS011;54904;54.350;18.664;2023-11-19T08:53:14;14.00;;;8.57;;
18320;SDS011;54904;54.350;18.664;2023-11-19T08:55:41;12.77;;;7.67;;
18320;SDS011;54904;54.350;18.664;2023-11-19T08:58:08;12.47;;;7.43;;
18320;SDS011;54904;54.350;18.664;2023-11-19T09:00:37;14.30;;;8.23;;
18320;SDS011;54904;54.350;18.664;2023-11-19T09:03:04;12.77;;;7.80;;
18320;SDS011;54904;54.350;18.664;2023-11-19T09:05:36;14.90;;;7.83;;
18320;SDS011;54904;54.350;18.664;2023-11-19T09:08:03;15.23;;;8.73;;
18320;SDS011;54904;54.350;18.664;2023-11-19T09:10:31;12.07;;;7.20;;
18320;SDS011;54904;54.350;18.664;2023-11-19T09:12:58;12.60;;;7.43;;
18320;SDS011;54904;54.350;18.664;2023-11-19T09:15:25;14.63;;;8.67;;
18320;SDS011;54904;54.350;18.664;2023-11-19T09:17:52;17.93;;;9.40;;
18320;SDS011;54904;54.350;18.664;2023-11-19T09:20:19;15.47;;;8.60;;
18320;SDS011;54904;54.350;18.664;2023-11-19T09:22:48;13.73;;;8.27;;
18320;SDS011;54904;54.350;18.664;2023-11-19T09:25:16;14.87;;;8.10;;
18320;SDS011;54904;54.350;18.664;2023-11-19T09:27:43;13.37;;;8.00;;
18320;SDS011;54904;54.350;18.664;2023-11-19T09:30:11;17.57;;;9.33;;
18320;SDS011;54904;54.350;18.664;2023-11-19T09:32:38;20.63;;;10.77;;
18320;SDS011;54904;54.350;18.664;2023-11-19T09:35:05;19.53;;;10.00;;
18320;SDS011;54904;54.350;18.664;2023-11-19T09:37:33;17.97;;;9.57;;
18320;SDS011;54904;54.350;18.664;2023-11-19T09:40:02;16.57;;;9.53;;
18320;SDS011;54904;54.350;18.664;2023-11-19T09:42:29;14.00;;;8.33;;
18320;SDS011;54904;54.350;18.664;2023-11-19T09:45:04;17.17;;;10.33;;
18320;SDS011;54904;54.350;18.664;2023-11-19T09:47:39;17.27;;;10.70;;
18320;SDS011;54904;54.350;18.664;2023-11-19T09:50:06;17.27;;;10.33;;
18320;SDS011;54904;54.350;18.664;2023-11-19T09:52:36;18.97;;;10.37;;
18320;SDS011;54904;54.350;18.664;2023-11-19T09:55:05;19.40;;;10.97;;
18320;SDS011;54904;54.350;18.664;2023-11-19T09:57:33;21.30;;;11.63;;
18320;SDS011;54904;54.350;18.664;2023-11-19T10:00:03;23.40;;;10.13;;
18320;SDS011;54904;54.350;18.664;2023-11-19T10:02:33;19.57;;;11.40;;
18320;SDS011;54904;54.350;18.664;2023-11-19T10:05:03;19.20;;;11.47;;
18320;SDS011;54904;54.350;18.664;2023-11-19T10:07:35;21.67;;;12.73;;
18320;SDS011;54904;54.350;18.664;2023-11-19T10:10:04;22.53;;;12.67;;
18320;SDS011;54904;54.350;18.664;2023-11-19T10:12:34;22.53;;;12.20;;
18320;SDS011;54904;54.350;18.664;2023-11-19T10:15:01;19.90;;;11.43;;
18320;SDS011;54904;54.350;18.664;2023-11-19T10:17:28;20.17;;;11.40;;
18320;SDS011;54904;54.350;18.664;2023-11-19T10:19:58;20.37;;;12.17;;
18320;SDS011;54904;54.350;18.664;2023-11-19T10:22:26;21.93;;;12.60;;
18320;SDS011;54904;54.350;18.664;2023-11-19T10:24:54;23.67;;;13.83;;
18320;SDS011;54904;54.350;18.664;2023-11-19T10:27:24;20.97;;;12.37;;
18320;SDS011;54904;54.350;18.664;2023-11-19T10:29:52;21.10;;;12.40;;
18320;SDS011;54904;54.350;18.664;2023-11-19T10:32:19;22.53;;;11.60;;
18320;SDS011;54904;54.350;18.664;2023-11-19T10:34:46;19.03;;;10.87;;
18320;SDS011;54904;54.350;18.664;2023-11-19T10:37:27;22.30;;;12.33;;
18320;SDS011;54904;54.350;18.664;2023-11-19T10:39:57;26.43;;;14.03;;
18320;SDS011;54904;54.350;18.664;2023-11-19T10:42:25;24.77;;;12.93;;
18320;SDS011;54904;54.350;18.664;2023-11-19T10:44:52;23.53;;;11.93;;
18320;SDS011;54904;54.350;18.664;2023-11-19T10:47:19;31.73;;;15.27;;
18320;SDS011;54904;54.350;18.664;2023-11-19T10:49:48;27.87;;;14.63;;
18320;SDS011;54904;54.350;18.664;2023-11-19T10:52:17;27.60;;;13.57;;
18320;SDS011;54904;54.350;18.664;2023-11-19T10:54:48;28.77;;;14.60;;
18320;SDS011;54904;54.350;18.664;2023-11-19T10:57:17;28.60;;;14.03;;
18320;SDS011;54904;54.350;18.664;2023-11-19T10:59:50;24.03;;;14.20;;
18320;SDS011;54904;54.350;18.664;2023-11-19T11:02:22;28.87;;;14.70;;
18320;SDS011;54904;54.350;18.664;2023-11-19T11:04:53;30.00;;;15.87;;
18320;SDS011;54904;54.350;18.664;2023-11-19T11:07:22;29.83;;;16.03;;
18320;SDS011;54904;54.350;18.664;2023-11-19T11:09:51;27.53;;;14.67;;
18320;SDS011;54904;54.350;18.664;2023-11-19T11:12:20;29.17;;;15.00;;
18320;SDS011;54904;54.350;18.664;2023-11-19T11:14:50;27.10;;;14.63;;
18320;SDS011;54904;54.350;18.664;2023-11-19T11:17:19;36.37;;;16.43;;
18320;SDS011;54904;54.350;18.664;2023-11-19T11:19:50;34.73;;;16.73;;
18320;SDS011;54904;54.350;18.664;2023-11-19T11:22:17;35.07;;;17.33;;
18320;SDS011;54904;54.350;18.664;2023-11-19T11:24:51;28.70;;;14.23;;
18320;SDS011;54904;54.350;18.664;2023-11-19T11:27:42;31.90;;;16.67;;
18320;SDS011;54904;54.350;18.664;2023-11-19T11:30:29;32.50;;;14.93;;
18320;SDS011;54904;54.350;18.664;2023-11-19T11:33:13;29.50;;;15.40;;
18320;SDS011;54904;54.350;18.664;2023-11-19T11:35:53;31.80;;;15.57;;
18320;SDS011;54904;54.350;18.664;2023-11-19T11:38:28;34.87;;;16.30;;
18320;SDS011;54904;54.350;18.664;2023-11-19T11:41:15;34.50;;;15.50;;
18320;SDS011;54904;54.350;18.664;2023-11-19T11:43:44;35.27;;;17.77;;
18320;SDS011;54904;54.350;18.664;2023-11-19T11:49:18;37.47;;;16.63;;
18320;SDS011;54904;54.350;18.664;2023-11-19T11:52:00;40.07;;;18.57;;
18320;SDS011;54904;54.350;18.664;2023-11-19T11:54:28;37.33;;;18.77;;
18320;SDS011;54904;54.350;18.664;2023-11-19T11:57:03;34.83;;;17.77;;
18320;SDS011;54904;54.350;18.664;2023-11-19T11:59:37;35.00;;;16.67;;
18320;SDS011;54904;54.350;18.664;2023-11-19T12:02:10;34.47;;;16.93;;
18320;SDS011;54904;54.350;18.664;2023-11-19T12:04:40;36.80;;;18.50;;
18320;SDS011;54904;54.350;18.664;2023-11-19T12:07:08;37.53;;;17.40;;
18320;SDS011;54904;54.350;18.664;2023-11-19T12:09:39;40.90;;;18.77;;
18320;SDS011;54904;54.350;18.664;2023-11-19T12:12:07;40.00;;;19.00;;
18320;SDS011;54904;54.350;18.664;2023-11-19T12:15:07;41.43;;;19.30;;
18320;SDS011;54904;54.350;18.664;2023-11-19T12:17:36;39.77;;;18.80;;
18320;SDS011;54904;54.350;18.664;2023-11-19T12:20:16;35.97;;;17.73;;
18320;SDS011;54904;54.350;18.664;2023-11-19T12:22:45;34.53;;;16.70;;
18320;SDS011;54904;54.350;18.664;2023-11-19T12:25:14;38.83;;;18.30;;
18320;SDS011;54904;54.350;18.664;2023-11-19T12:27:43;41.87;;;19.83;;
18320;SDS011;54904;54.350;18.664;2023-11-19T12:30:12;40.57;;;18.00;;
18320;SDS011;54904;54.350;18.664;2023-11-19T12:32:39;36.77;;;18.00;;
18320;SDS011;54904;54.350;18.664;2023-11-19T12:35:07;37.50;;;17.80;;
18320;SDS011;54904;54.350;18.664;2023-11-19T12:37:44;44.27;;;20.73;;
18320;SDS011;54904;54.350;18.664;2023-11-19T12:40:14;45.13;;;20.80;;
18320;SDS011;54904;54.350;18.664;2023-11-19T12:42:42;41.50;;;19.23;;
18320;SDS011;54904;54.350;18.664;2023-11-19T12:45:09;39.70;;;18.50;;
18320;SDS011;54904;54.350;18.664;2023-11-19T12:47:37;41.77;;;19.03;;
18320;SDS011;54904;54.350;18.664;2023-11-19T12:50:05;45.83;;;20.63;;
18320;SDS011;54904;54.350;18.664;2023-11-19T12:52:33;43.10;;;19.13;;
18320;SDS011;54904;54.350;18.664;2023-11-19T12:55:02;47.63;;;21.23;;
18320;SDS011;54904;54.350;18.664;2023-11-19T12:57:38;49.03;;;22.03;;
18320;SDS011;54904;54.350;18.664;2023-11-19T13:00:06;45.57;;;21.13;;
18320;SDS011;54904;54.350;18.664;2023-11-19T13:02:44;61.60;;;24.90;;
18320;SDS011;54904;54.350;18.664;2023-11-19T13:05:22;47.43;;;22.60;;
18320;SDS011;54904;54.350;18.664;2023-11-19T13:07:51;45.20;;;20.53;;
18320;SDS011;54904;54.350;18.664;2023-11-19T13:10:25;50.17;;;23.47;;
18320;SDS011;54904;54.350;18.664;2023-11-19T13:12:59;51.07;;;23.27;;
18320;SDS011;54904;54.350;18.664;2023-11-19T13:15:30;48.37;;;20.87;;
18320;SDS011;54904;54.350;18.664;2023-11-19T13:17:57;46.70;;;22.20;;
18320;SDS011;54904;54.350;18.664;2023-11-19T13:20:24;45.67;;;22.17;;
18320;SDS011;54904;54.350;18.664;2023-11-19T13:22:55;46.60;;;21.50;;
18320;SDS011;54904;54.350;18.664;2023-11-19T13:25:22;45.13;;;20.07;;
18320;SDS011;54904;54.350;18.664;2023-11-19T13:27:50;39.20;;;18.20;;
18320;SDS011;54904;54.350;18.664;2023-11-19T13:30:18;45.53;;;22.17;;
18320;SDS011;54904;54.350;18.664;2023-11-19T13:32:45;44.90;;;21.23;;
18320;SDS011;54904;54.350;18.664;2023-11-19T13:35:12;43.93;;;20.63;;
18320;SDS011;54904;54.350;18.664;2023-11-19T13:37:39;44.17;;;20.53;;
18320;SDS011;54904;54.350;18.664;2023-11-19T13:40:07;42.07;;;19.37;;
18320;SDS011;54904;54.350;18.664;2023-11-19T13:42:36;39.73;;;19.30;;
18320;SDS011;54904;54.350;18.664;2023-11-19T13:45:08;41.20;;;19.30;;
18320;SDS011;54904;54.350;18.664;2023-11-19T13:47:38;40.23;;;19.07;;
18320;SDS011;54904;54.350;18.664;2023-11-19T13:50:07;44.27;;;20.07;;
18320;SDS011;54904;54.350;18.664;2023-11-19T13:52:36;38.87;;;18.37;;
18320;SDS011;54904;54.350;18.664;2023-11-19T13:55:05;36.20;;;17.37;;
18320;SDS011;54904;54.350;18.664;2023-11-19T13:57:33;45.53;;;21.23;;
18320;SDS011;54904;54.350;18.664;2023-11-19T14:00:01;45.40;;;20.77;;
18320;SDS011;54904;54.350;18.664;2023-11-19T14:02:35;44.13;;;21.13;;
18320;SDS011;54904;54.350;18.664;2023-11-19T14:05:02;35.23;;;17.27;;
18320;SDS011;54904;54.350;18.664;2023-11-19T14:07:31;45.33;;;21.17;;
18320;SDS011;54904;54.350;18.664;2023-11-19T14:09:58;39.47;;;17.93;;
18320;SDS011;54904;54.350;18.664;2023-11-19T14:12:25;43.57;;;20.40;;
18320;SDS011;54904;54.350;18.664;2023-11-19T14:14:52;35.40;;;16.60;;
18320;SDS011;54904;54.350;18.664;2023-11-19T14:17:19;40.23;;;19.37;;
18320;SDS011;54904;54.350;18.664;2023-11-19T14:19:48;37.93;;;19.23;;
18320;SDS011;54904;54.350;18.664;2023-11-19T14:22:15;40.73;;;19.27;;
18320;SDS011;54904;54.350;18.664;2023-11-19T14:24:42;44.87;;;21.60;;
18320;SDS011;54904;54.350;18.664;2023-11-19T14:27:09;40.47;;;20.10;;